Disclaimer

Please do not use the information listed here in-flight or in-navigation, as they are not provided to us by the airports but are provided by volunteers, so they might be outdated.

Search


Regions


Airport information page

Radio informations:
TANGER TWR - 119.5 MHz
TANGER APP - 121.2 MHz

Airport informations:
Latitude: 35° 43' 36.90" N
Longitude: 005° 55' 00.80" W
Elevation: 62 feet - 19 meters
Operating hours: 24 hour operations
Operating agency: Civil government, landing fees and diplomatic clearance may be required
Timezone: UTC 0
Fuel: N/A

Runway information:
07/25 - 6562 x 98 feet< - >2000 x 30 meters
10/28 - 11483 x 148 feet< - >3500 x 45 meters

Recent METARs:
GMTT 131430Z 09012KT 8000 SCT016 BKN200 19/12 Q1017 NOSIG
GMTT 131500Z 09015KT 8000 SCT016 BKN200 19/12 Q1017 NOSIG
GMTT 131530Z 09015KT 8000 SCT016 BKN200 19/12 Q1017 NOSIG

Airport on the map: